Terminal Aerodrome Forecast
Issued by NWS Sterling, VA

Current Version | Previous Version | Graphics & Text | Print | Product List | Glossary On
Versions: 1 2 3 4 5 6 7 8 9 10 11 12
000
FTUS41 KLWX 151100
TAFMRB
TAF
KMRB 151130Z 1512/1612 VRB03KT 5SM BR FEW050 FEW250
     FM151300 VRB03KT P6SM FEW050 FEW250
     FM151700 18005KT P6SM SCT050 SCT200
     FM160300 VRB03KT P6SM OVC050
     FM160600 VRB03KT 5SM BR BKN050=

USA.gov is the U.S. government's official web portal to all federal, state and local government web resources and services.